Time;durP1;ratioP1;P1;durP2;ratioP2;P2;SDS_P1;SDS_P2;PMS_P1;PMS_P2;Temp;Humidity;BMP_temperature;BMP_pressure;BME280_temperature;BME280_humidity;BME280_pressure;Samples;Min_cycle;Max_cycle;Signal;HPM_P1;HPM_P2
2023/07/01 00:01:42;;;;;;;3.88;1.75;;;17.90;98.10;;;;;;6257626;22;20003;-72
2023/07/01 00:04:08;;;;;;;7.97;2.13;;;17.90;98.20;;;;;;6309775;22;20029;-74
2023/07/01 00:06:34;;;;;;;2.58;1.65;;;17.90;98.30;;;;;;6347848;22;20014;-72
2023/07/01 00:08:59;;;;;;;1.63;1.33;;;17.90;98.50;;;;;;6348110;22;20498;-71
2023/07/01 00:11:25;;;;;;;5.05;2.42;;;17.90;98.70;;;;;;6258078;22;20436;-73
2023/07/01 00:13:51;;;;;;;3.22;1.88;;;17.80;98.90;;;;;;6348198;22;19999;-71
2023/07/01 00:16:17;;;;;;;4.25;2.22;;;17.80;99.00;;;;;;6310339;22;20029;-72
2023/07/01 00:18:45;;;;;;;2.92;1.52;;;17.80;99.10;;;;;;6320667;22;19999;-74
2023/07/01 00:21:11;;;;;;;2.03;1.50;;;17.80;99.20;;;;;;6320217;22;19994;-71
2023/07/01 00:23:37;;;;;;;3.80;2.10;;;17.80;99.30;;;;;;6319895;22;20075;-71
2023/07/01 00:26:02;;;;;;;8.63;1.88;;;17.80;99.40;;;;;;6348219;22;20315;-71
2023/07/01 00:28:28;;;;;;;2.92;1.88;;;17.80;99.50;;;;;;6284284;22;19999;-72
2023/07/01 00:30:54;;;;;;;3.15;1.65;;;17.70;99.80;;;;;;6283483;22;20420;-72
2023/07/01 00:33:21;;;;;;;3.50;1.58;;;17.70;99.90;;;;;;6311478;22;20010;-71
2023/07/01 00:35:47;;;;;;;1.77;1.27;;;17.70;99.90;;;;;;6283993;22;19999;-71
2023/07/01 00:38:13;;;;;;;5.45;2.38;;;17.70;99.90;;;;;;6309795;22;20017;-70
2023/07/01 00:40:38;;;;;;;6.90;2.45;;;17.70;99.90;;;;;;6309796;22;19998;-71
2023/07/01 00:43:05;;;;;;;2.08;1.75;;;17.70;99.90;;;;;;6283975;22;20007;-71
2023/07/01 00:45:31;;;;;;;5.75;2.03;;;17.60;99.90;;;;;;6320800;22;19991;-71
2023/07/01 00:47:56;;;;;;;9.38;3.25;;;17.70;99.90;;;;;;6309869;22;20044;-73
2023/07/01 00:50:23;;;;;;;2.65;1.75;;;17.70;99.90;;;;;;6283098;22;20003;-72
2023/07/01 00:52:49;;;;;;;2.38;1.48;;;17.70;99.90;;;;;;6283110;22;20003;-72
2023/07/01 00:55:16;;;;;;;3.72;1.95;;;17.70;99.90;;;;;;6284476;22;20044;-71
2023/07/01 00:57:43;;;;;;;3.30;2.03;;;17.60;99.90;;;;;;6283850;22;20330;-71
2023/07/01 01:00:12;;;;;;;1.80;1.05;;;17.60;99.90;;;;;;6284091;22;20048;-71
2023/07/01 01:03:04;;;;;;;1.33;1.23;;;17.60;99.90;;;;;;6314030;22;20516;-72
2023/07/01 01:05:53;;;;;;;1.38;1.27;;;17.60;99.90;;;;;;6309320;22;20129;-71
2023/07/01 01:08:50;;;;;;;3.53;2.38;;;17.50;99.90;;;;;;6283995;22;20074;-72
2023/07/01 01:11:17;;;;;;;2.10;1.90;;;17.60;99.90;;;;;;6308802;22;20441;-75
2023/07/01 01:13:44;;;;;;;2.25;1.77;;;17.60;99.90;;;;;;6283935;22;19999;-73
2023/07/01 01:16:11;;;;;;;4.82;1.70;;;17.70;99.90;;;;;;6283900;22;20444;-74
2023/07/01 01:18:39;;;;;;;1.42;1.25;;;17.60;99.90;;;;;;6283385;22;20030;-72
2023/07/01 01:21:06;;;;;;;7.32;2.35;;;17.60;99.90;;;;;;6309368;22;20067;-72
2023/07/01 01:23:38;;;;;;;4.97;2.10;;;17.70;99.90;;;;;;6283248;22;20097;-72
2023/07/01 01:26:15;;;;;;;4.75;1.98;;;17.70;99.90;;;;;;6309653;22;19999;-72
2023/07/01 01:28:41;;;;;;;4.35;1.77;;;17.80;99.90;;;;;;6283873;22;20026;-72
2023/07/01 01:31:07;;;;;;;15.68;2.25;;;17.80;99.90;;;;;;6309447;22;20384;-74
2023/07/01 01:33:33;;;;;;;3.35;2.35;;;17.90;99.90;;;;;;6282883;22;20030;-71
2023/07/01 01:36:09;;;;;;;2.65;2.22;;;17.90;99.90;;;;;;6258631;22;20085;-72
2023/07/01 01:38:37;;;;;;;4.32;1.67;;;17.90;99.90;;;;;;6347666;22;20069;-72
2023/07/01 01:41:28;;;;;;;2.40;1.67;;;17.90;99.90;;;;;;6284207;22;20005;-71
2023/07/01 01:44:10;;;;;;;3.25;1.08;;;17.80;99.90;;;;;;6269423;22;20021;-71
2023/07/01 01:46:39;;;;;;;5.60;2.47;;;17.80;99.90;;;;;;6309117;22;20010;-71
2023/07/01 01:49:08;;;;;;;3.28;1.63;;;17.80;99.90;;;;;;6322432;22;20030;-71
2023/07/01 01:51:36;;;;;;;4.15;2.25;;;17.80;99.90;;;;;;6321318;22;20444;-72
2023/07/01 01:54:04;;;;;;;3.28;2.10;;;17.80;99.90;;;;;;6286270;22;20006;-71
2023/07/01 01:56:32;;;;;;;3.60;1.60;;;17.80;99.90;;;;;;6286092;22;20044;-71
2023/07/01 01:58:58;;;;;;;3.40;1.85;;;17.80;99.90;;;;;;6285578;22;20414;-72
2023/07/01 02:01:25;;;;;;;2.28;2.00;;;17.80;99.90;;;;;;6285021;22;20023;-71
2023/07/01 02:03:51;;;;;;;8.00;2.60;;;17.80;99.90;;;;;;6285257;22;20065;-71
2023/07/01 02:06:16;;;;;;;3.70;2.15;;;17.80;99.90;;;;;;6311465;22;20426;-71
2023/07/01 02:08:42;;;;;;;2.75;1.50;;;17.80;99.90;;;;;;6322025;22;19995;-71
2023/07/01 02:11:08;;;;;;;3.05;2.13;;;17.80;99.90;;;;;;6260084;22;20017;-72
2023/07/01 02:13:34;;;;;;;7.35;3.15;;;17.80;99.90;;;;;;6285009;22;20483;-71
2023/07/01 02:16:00;;;;;;;1.77;1.58;;;17.80;99.90;;;;;;6284897;22;20018;-71
2023/07/01 02:18:25;;;;;;;2.13;1.67;;;17.70;99.90;;;;;;6260077;22;20056;-71
2023/07/01 02:20:51;;;;;;;1.88;1.52;;;17.70;99.90;;;;;;6311416;22;20086;-71
2023/07/01 02:23:17;;;;;;;2.65;1.58;;;17.70;99.90;;;;;;6285059;22;20030;-71
2023/07/01 02:25:43;;;;;;;5.78;2.03;;;17.70;99.90;;;;;;6285358;22;20027;-71
2023/07/01 02:28:09;;;;;;;3.17;2.15;;;17.60;99.90;;;;;;6349299;22;20418;-71
2023/07/01 02:30:35;;;;;;;2.65;2.45;;;17.60;99.90;;;;;;6311026;22;20442;-72
2023/07/01 02:33:02;;;;;;;1.85;1.58;;;17.60;99.90;;;;;;6284217;22;20010;-72
2023/07/01 02:35:29;;;;;;;3.17;2.10;;;17.60;99.90;;;;;;6311464;22;20102;-71
2023/07/01 02:37:55;;;;;;;11.48;2.95;;;17.70;99.90;;;;;;6285432;22;19999;-71
2023/07/01 02:40:20;;;;;;;1.90;1.77;;;17.70;99.90;;;;;;6285414;22;20370;-72
2023/07/01 02:42:47;;;;;;;3.45;2.53;;;17.70;99.90;;;;;;6285085;22;20006;-71
2023/07/01 02:45:13;;;;;;;2.80;2.30;;;17.70;99.90;;;;;;6349247;22;20005;-71
2023/07/01 02:47:39;;;;;;;4.28;2.45;;;17.60;99.90;;;;;;6285530;22;19991;-72
2023/07/01 02:50:05;;;;;;;4.93;2.58;;;17.50;99.90;;;;;;6349142;22;20010;-71
2023/07/01 02:52:32;;;;;;;6.85;2.13;;;17.50;99.90;;;;;;6310308;22;20318;-72
2023/07/01 02:54:57;;;;;;;3.08;2.45;;;17.50;99.90;;;;;;6311048;22;20010;-71
2023/07/01 02:57:23;;;;;;;4.15;1.92;;;17.50;99.90;;;;;;6310758;22;20003;-71
2023/07/01 02:59:50;;;;;;;5.80;2.65;;;17.50;99.90;;;;;;6284960;22;19999;-70
2023/07/01 03:02:16;;;;;;;2.45;2.15;;;17.50;99.90;;;;;;6284689;22;20048;-71
2023/07/01 03:04:42;;;;;;;5.22;2.15;;;17.50;99.90;;;;;;6310793;22;20014;-74
2023/07/01 03:07:07;;;;;;;2.65;2.42;;;17.50;99.90;;;;;;6285071;22;19995;-73
2023/07/01 03:09:33;;;;;;;2.92;2.33;;;17.50;99.90;;;;;;6310803;22;20085;-72
2023/07/01 03:11:59;;;;;;;8.95;2.80;;;17.40;99.90;;;;;;6348721;22;19995;-72
2023/07/01 03:14:25;;;;;;;8.75;1.83;;;17.40;99.90;;;;;;6285104;22;20052;-71
2023/07/01 03:16:52;;;;;;;7.45;2.63;;;17.40;99.90;;;;;;6259800;22;20026;-72
2023/07/01 03:19:18;;;;;;;2.20;1.73;;;17.30;99.90;;;;;;6285171;22;19999;-72
2023/07/01 03:21:45;;;;;;;3.97;1.65;;;17.30;99.90;;;;;;6284900;22;20005;-70
2023/07/01 03:24:11;;;;;;;3.60;2.72;;;17.30;99.90;;;;;;6285215;22;20014;-71
2023/07/01 03:26:37;;;;;;;8.32;2.95;;;17.20;99.90;;;;;;6321410;22;19995;-71
2023/07/01 03:29:03;;;;;;;2.05;1.85;;;17.00;99.90;;;;;;6348734;22;20007;-75
2023/07/01 03:31:30;;;;;;;2.38;2.17;;;16.80;99.90;;;;;;6309712;22;20366;-73
2023/07/01 03:33:56;;;;;;;4.20;3.45;;;16.80;99.90;;;;;;6285400;22;20085;-73
2023/07/01 03:36:21;;;;;;;2.55;2.15;;;16.80;99.90;;;;;;6348659;22;20030;-71
2023/07/01 03:38:48;;;;;;;2.90;2.63;;;16.70;99.90;;;;;;6348878;22;20046;-70
2023/07/01 03:41:14;;;;;;;8.93;2.90;;;16.60;99.90;;;;;;6285216;22;20318;-71
2023/07/01 03:43:40;;;;;;;3.10;2.83;;;16.50;99.90;;;;;;6347285;22;20068;-71
2023/07/01 03:46:06;;;;;;;3.25;2.95;;;16.50;99.90;;;;;;6321350;22;20002;-71
2023/07/01 03:48:32;;;;;;;2.42;2.22;;;16.40;99.90;;;;;;6310601;22;20007;-71
2023/07/01 03:50:57;;;;;;;4.38;3.10;;;16.30;99.90;;;;;;6284968;22;19998;-71
2023/07/01 03:53:24;;;;;;;6.82;2.92;;;16.10;99.90;;;;;;6348463;22;20369;-70
2023/07/01 03:55:50;;;;;;;3.08;2.67;;;16.00;99.90;;;;;;6259786;22;20006;-71
2023/07/01 03:58:21;;;;;;;3.03;2.83;;;15.90;99.90;;;;;;6310437;22;20011;-73
2023/07/01 04:00:53;;;;;;;9.63;4.57;;;15.80;99.90;;;;;;6348582;22;20082;-71
2023/07/01 04:03:23;;;;;;;3.28;2.72;;;15.80;99.90;;;;;;6312005;22;20011;-71
2023/07/01 04:05:51;;;;;;;4.70;4.30;;;15.70;99.90;;;;;;6320608;22;19995;-71
2023/07/01 04:08:17;;;;;;;3.40;2.83;;;15.80;99.90;;;;;;6284829;22;20019;-71
2023/07/01 04:10:43;;;;;;;6.00;2.40;;;15.70;99.90;;;;;;6320400;22;20003;-70
2023/07/01 04:13:08;;;;;;;8.30;3.53;;;15.70;99.90;;;;;;6347181;22;20005;-71
2023/07/01 04:15:34;;;;;;;2.85;2.55;;;15.70;99.90;;;;;;6321105;22;20007;-71
2023/07/01 04:18:00;;;;;;;3.38;3.13;;;15.60;99.90;;;;;;6294631;22;19999;-71
2023/07/01 04:20:26;;;;;;;3.90;3.17;;;15.70;99.90;;;;;;6348057;22;19995;-71
2023/07/01 04:22:51;;;;;;;5.82;2.60;;;15.70;99.90;;;;;;6347604;22;19995;-71
2023/07/01 04:25:17;;;;;;;3.20;2.90;;;15.70;99.90;;;;;;6348747;22;20007;-70
2023/07/01 04:27:43;;;;;;;5.10;3.65;;;15.70;99.90;;;;;;6284580;22;20353;-73
2023/07/01 04:30:11;;;;;;;2.60;2.40;;;15.70;99.90;;;;;;6348525;22;20081;-71
2023/07/01 04:32:38;;;;;;;5.20;3.53;;;15.80;99.90;;;;;;6258132;22;20090;-71
2023/07/01 04:35:05;;;;;;;3.25;3.00;;;15.70;99.90;;;;;;6284175;22;20006;-71
2023/07/01 04:37:30;;;;;;;4.90;3.78;;;15.60;99.90;;;;;;6284586;22;20016;-72
2023/07/01 04:39:56;;;;;;;2.67;2.30;;;15.70;99.90;;;;;;6348431;22;20534;-71
2023/07/01 04:42:22;;;;;;;5.32;3.28;;;15.60;99.90;;;;;;6309422;22;20005;-71
2023/07/01 04:44:53;;;;;;;5.30;3.33;;;15.70;99.90;;;;;;6320602;22;20383;-71
2023/07/01 04:47:26;;;;;;;2.92;2.63;;;15.70;99.90;;;;;;6284873;22;19995;-71
2023/07/01 04:49:54;;;;;;;5.63;3.35;;;15.70;99.90;;;;;;6309059;22;20003;-72
2023/07/01 04:52:24;;;;;;;2.60;2.40;;;15.70;99.90;;;;;;6346916;22;20044;-76
2023/07/01 04:54:51;;;;;;;;;;;15.70;99.90;;;;;;6284310;22;20042;-71
2023/07/01 04:57:16;;;;;;;3.70;3.15;;;15.70;99.90;;;;;;6336759;22;19902;-73
2023/07/01 04:59:43;;;;;;;3.10;2.22;;;15.70;99.90;;;;;;6283646;22;20084;-74
2023/07/01 05:02:08;;;;;;;2.45;2.08;;;15.70;99.90;;;;;;6343896;22;20010;-73
2023/07/01 05:04:36;;;;;;;2.78;2.47;;;15.70;99.90;;;;;;6347113;22;20333;-72
2023/07/01 05:07:02;;;;;;;2.45;2.05;;;15.70;99.90;;;;;;6283902;22;20022;-71
2023/07/01 05:09:28;;;;;;;2.92;2.72;;;15.60;99.90;;;;;;6346858;22;20044;-73
2023/07/01 05:11:53;;;;;;;3.33;2.50;;;15.60;99.90;;;;;;6283849;22;19995;-71
2023/07/01 05:14:19;;;;;;;2.17;2.08;;;15.60;99.90;;;;;;6346594;22;20426;-72
2023/07/01 05:16:45;;;;;;;2.45;2.25;;;15.70;99.90;;;;;;6291437;22;19995;-72
2023/07/01 05:19:11;;;;;;;8.52;3.42;;;15.70;99.90;;;;;;6346383;22;19994;-71
2023/07/01 05:21:38;;;;;;;2.72;2.60;;;15.60;99.90;;;;;;6282442;22;19999;-73
2023/07/01 05:24:04;;;;;;;2.75;2.55;;;15.70;99.90;;;;;;6282390;22;20864;-72
2023/07/01 05:26:30;;;;;;;2.33;2.22;;;15.70;99.90;;;;;;6281366;22;19995;-72
2023/07/01 05:28:57;;;;;;;3.65;2.90;;;15.80;99.90;;;;;;6288940;22;20052;-73
2023/07/01 05:31:23;;;;;;;5.85;3.05;;;15.80;99.90;;;;;;6332076;22;20041;-71
2023/07/01 05:33:49;;;;;;;2.38;2.00;;;15.80;99.90;;;;;;6333724;22;20114;-78
2023/07/01 05:36:15;;;;;;;2.40;2.20;;;15.80;99.90;;;;;;6255858;22;20445;-74
2023/07/01 05:38:41;;;;;;;2.25;2.15;;;15.80;99.90;;;;;;6291098;22;20006;-71
2023/07/01 05:41:07;;;;;;;2.53;2.33;;;15.80;99.90;;;;;;6280432;22;19995;-72
2023/07/01 05:43:33;;;;;;;3.15;2.33;;;15.90;99.90;;;;;;6343597;22;20011;-74
2023/07/01 05:45:59;;;;;;;2.95;2.67;;;15.90;99.90;;;;;;6256175;22;19999;-72
2023/07/01 05:48:25;;;;;;;2.35;2.25;;;16.00;99.90;;;;;;6344771;22;20003;-72
2023/07/01 05:50:51;;;;;;;1.77;1.67;;;15.90;99.90;;;;;;6254342;22;20009;-72
2023/07/01 05:53:17;;;;;;;2.83;2.35;;;16.00;99.90;;;;;;6306156;22;20050;-73
2023/07/01 05:55:43;;;;;;;4.40;3.28;;;16.00;99.90;;;;;;6255826;22;20006;-76
2023/07/01 05:58:08;;;;;;;2.20;2.08;;;16.10;99.90;;;;;;6317582;22;20410;-71
2023/07/01 06:00:35;;;;;;;2.13;2.00;;;16.10;99.90;;;;;;6291873;22;19999;-71
2023/07/01 06:03:01;;;;;;;2.42;2.22;;;16.20;99.90;;;;;;6308942;22;20446;-71
2023/07/01 06:05:27;;;;;;;2.00;1.90;;;16.10;99.90;;;;;;6307446;22;20048;-74
2023/07/01 06:07:53;;;;;;;5.22;1.58;;;16.10;99.90;;;;;;6306462;22;20011;-73
2023/07/01 06:10:19;;;;;;;1.90;1.80;;;16.20;99.90;;;;;;6280892;22;20102;-73
2023/07/01 06:12:44;;;;;;;1.05;1.05;;;16.20;99.90;;;;;;6316255;22;20010;-78
2023/07/01 06:15:10;;;;;;;1.55;1.45;;;16.20;99.90;;;;;;6344454;22;19995;-73
2023/07/01 06:17:36;;;;;;;1.17;1.10;;;16.40;99.90;;;;;;6317775;22;20026;-72
2023/07/01 06:20:02;;;;;;;2.45;1.20;;;16.30;99.90;;;;;;6280460;22;19998;-73
2023/07/01 06:22:28;;;;;;;1.63;1.52;;;16.30;99.90;;;;;;6280600;22;20468;-75
2023/07/01 06:24:55;;;;;;;1.88;1.55;;;16.30;99.90;;;;;;6306298;22;20045;-72
2023/07/01 06:27:33;;;;;;;1.80;1.70;;;16.30;99.90;;;;;;6306740;22;20033;-72
2023/07/01 06:29:59;;;;;;;2.10;1.92;;;16.30;99.90;;;;;;6280728;22;20017;-82
2023/07/01 06:32:25;;;;;;;2.78;1.50;;;16.30;99.90;;;;;;6279187;22;20098;-71
2023/07/01 06:34:51;;;;;;;3.85;1.65;;;16.30;99.90;;;;;;6282933;22;20006;-73
2023/07/01 06:37:17;;;;;;;1.40;1.40;;;16.30;99.90;;;;;;6319032;22;20314;-75
2023/07/01 06:39:42;;;;;;;2.15;1.50;;;16.40;99.90;;;;;;6308628;22;19999;-71
2023/07/01 06:42:09;;;;;;;4.35;1.38;;;16.40;99.90;;;;;;6345942;22;20022;-73
2023/07/01 06:44:35;;;;;;;1.73;1.63;;;16.50;99.90;;;;;;6283214;22;20015;-72
2023/07/01 06:47:01;;;;;;;1.73;1.30;;;16.50;99.90;;;;;;6292547;22;19998;-74
2023/07/01 06:49:27;;;;;;;1.40;1.20;;;16.60;99.90;;;;;;6346982;22;19999;-76
2023/07/01 06:51:53;;;;;;;2.47;1.17;;;16.60;99.90;;;;;;6257595;22;20002;-71
2023/07/01 06:54:19;;;;;;;1.73;1.63;;;16.80;99.90;;;;;;6319239;22;20007;-72
2023/07/01 06:56:45;;;;;;;2.30;1.08;;;16.70;99.90;;;;;;6348312;22;20482;-71
2023/07/01 06:59:11;;;;;;;1.83;1.65;;;16.80;99.90;;;;;;6292390;22;20049;-70
2023/07/01 07:01:36;;;;;;;1.52;1.42;;;16.70;99.90;;;;;;6283313;22;19991;-71
2023/07/01 07:04:02;;;;;;;1.25;1.13;;;16.70;99.90;;;;;;6308029;22;20006;-74
2023/07/01 07:06:28;;;;;;;1.48;1.38;;;16.70;99.90;;;;;;6320883;22;20005;-72
2023/07/01 07:08:54;;;;;;;1.25;1.10;;;16.70;99.90;;;;;;6319457;22;20322;-72
2023/07/01 07:11:20;;;;;;;1.40;1.30;;;16.70;99.90;;;;;;6346876;22;20002;-71
2023/07/01 07:13:46;;;;;;;6.97;1.25;;;16.60;99.90;;;;;;6346277;22;19995;-73
2023/07/01 07:16:11;;;;;;;1.63;1.60;;;16.60;99.90;;;;;;6282819;22;20307;-73
2023/07/01 07:18:37;;;;;;;1.67;1.58;;;16.60;99.90;;;;;;6283203;22;19999;-74
2023/07/01 07:21:03;;;;;;;2.42;1.25;;;16.70;99.90;;;;;;6346427;22;20001;-73
2023/07/01 07:23:29;;;;;;;1.42;1.33;;;16.70;99.90;;;;;;6318846;22;20038;-75
2023/07/01 07:25:55;;;;;;;2.70;1.20;;;16.80;99.90;;;;;;6319227;22;19991;-72
2023/07/01 07:28:21;;;;;;;1.25;1.15;;;16.80;99.90;;;;;;6346938;22;20048;-72
2023/07/01 07:30:46;;;;;;;1.92;1.70;;;16.80;99.90;;;;;;6346705;22;20074;-72
2023/07/01 07:33:12;;;;;;;3.33;1.60;;;16.80;99.90;;;;;;6281263;22;20010;-73
2023/07/01 07:35:38;;;;;;;1.35;1.20;;;16.90;99.90;;;;;;6282861;22;20469;-76
2023/07/01 07:38:04;;;;;;;1.45;1.15;;;16.90;99.90;;;;;;6293030;22;20006;-77
2023/07/01 07:40:29;;;;;;;1.38;1.27;;;16.90;99.90;;;;;;6319121;22;19995;-74
2023/07/01 07:42:55;;;;;;;1.65;1.15;;;17.00;99.90;;;;;;6346102;22;19998;-72
2023/07/01 07:45:22;;;;;;;1.40;1.40;;;17.10;99.90;;;;;;6292332;22;20021;-80
2023/07/01 07:47:48;;;;;;;1.38;1.33;;;17.10;99.90;;;;;;6308375;22;20055;-72
2023/07/01 07:50:15;;;;;;;1.42;1.35;;;17.20;99.90;;;;;;6258051;22;20019;-72
2023/07/01 07:52:41;;;;;;;1.50;1.40;;;17.40;99.90;;;;;;6282018;22;20068;-74
2023/07/01 07:55:08;;;;;;;1.83;1.70;;;17.50;99.90;;;;;;6283022;22;20097;-72
2023/07/01 07:57:33;;;;;;;0.70;0.70;;;17.60;99.90;;;;;;6346766;22;20077;-72
2023/07/01 08:00:00;;;;;;;1.25;1.25;;;17.80;99.90;;;;;;6283162;22;20048;-76
2023/07/01 08:02:25;;;;;;;1.02;1.02;;;17.80;99.90;;;;;;6341302;22;20003;-71
2023/07/01 08:04:51;;;;;;;1.52;1.30;;;17.80;99.90;;;;;;6318196;22;20007;-74
2023/07/01 08:07:17;;;;;;;1.30;1.20;;;18.00;99.90;;;;;;6346483;22;20026;-75
2023/07/01 08:09:43;;;;;;;4.07;2.05;;;18.20;99.90;;;;;;6281618;22;20507;-73
2023/07/01 08:12:09;;;;;;;1.05;0.95;;;18.40;99.90;;;;;;6318293;22;20021;-72
2023/07/01 08:14:35;;;;;;;0.77;0.77;;;18.40;99.90;;;;;;6284262;22;20044;-73
2023/07/01 08:17:01;;;;;;;1.25;1.17;;;18.50;99.90;;;;;;6284108;22;19999;-71
2023/07/01 08:19:28;;;;;;;0.90;0.90;;;18.50;99.90;;;;;;6347980;22;20423;-72
2023/07/01 08:21:54;;;;;;;0.82;0.82;;;18.40;99.90;;;;;;6292055;22;20006;-74
2023/07/01 08:24:21;;;;;;;1.70;1.60;;;18.30;99.90;;;;;;6257883;22;20011;-72
2023/07/01 08:26:47;;;;;;;1.23;1.13;;;18.20;99.90;;;;;;6283029;22;20007;-73
2023/07/01 08:29:13;;;;;;;0.60;0.60;;;17.90;99.90;;;;;;6319131;22;20071;-71
2023/07/01 08:31:40;;;;;;;0.75;0.75;;;18.00;99.90;;;;;;6317125;22;19999;-73
2023/07/01 08:34:06;;;;;;;0.80;0.80;;;17.90;99.90;;;;;;6281299;22;20019;-72
2023/07/01 08:36:32;;;;;;;0.95;0.95;;;18.00;99.90;;;;;;6282773;22;20347;-74
2023/07/01 08:38:58;;;;;;;1.00;1.00;;;18.00;99.90;;;;;;6283540;22;20006;-74
2023/07/01 08:41:25;;;;;;;1.27;0.80;;;18.00;99.90;;;;;;6294203;22;19999;-72
2023/07/01 08:43:56;;;;;;;0.85;0.85;;;18.10;99.90;;;;;;6345985;22;20132;-72
2023/07/01 08:46:23;;;;;;;3.47;0.75;;;18.10;99.90;;;;;;6283599;22;20038;-73
2023/07/01 08:48:50;;;;;;;2.15;1.20;;;18.20;99.90;;;;;;6320389;22;20066;-73
2023/07/01 08:51:30;;;;;;;0.93;0.82;;;18.30;99.90;;;;;;6347565;22;20067;-71
2023/07/01 08:53:59;;;;;;;0.60;0.60;;;18.40;99.90;;;;;;6281591;22;20045;-71
2023/07/01 08:56:25;;;;;;;0.68;0.68;;;18.60;99.90;;;;;;6309615;22;20399;-71
2023/07/01 08:58:50;;;;;;;0.65;0.65;;;18.70;99.90;;;;;;6320490;22;20031;-72
2023/07/01 09:01:17;;;;;;;3.65;0.80;;;19.00;99.90;;;;;;6345145;22;20414;-75
2023/07/01 09:03:46;;;;;;;0.40;0.40;;;18.90;99.90;;;;;;6333426;22;20014;-72
2023/07/01 09:06:12;;;;;;;0.50;0.50;;;18.90;99.90;;;;;;6305970;22;19995;-72
2023/07/01 09:08:38;;;;;;;1.05;0.80;;;18.60;99.90;;;;;;6319807;22;20390;-74
2023/07/01 09:11:14;;;;;;;0.50;0.50;;;18.50;99.90;;;;;;6309462;22;19995;-79
2023/07/01 09:13:41;;;;;;;0.63;0.63;;;18.70;99.90;;;;;;6280623;22;20007;-71
2023/07/01 09:16:08;;;;;;;0.47;0.47;;;18.70;99.90;;;;;;6280396;22;19991;-75
2023/07/01 09:18:34;;;;;;;0.40;0.40;;;18.80;99.90;;;;;;6306860;22;20085;-73
2023/07/01 09:21:00;;;;;;;1.05;0.77;;;18.90;99.90;;;;;;6344151;22;19991;-73
2023/07/01 09:23:30;;;;;;;0.90;0.82;;;18.90;99.90;;;;;;6316488;22;20800;-79
2023/07/01 09:26:10;;;;;;;0.68;0.55;;;19.00;99.90;;;;;;6282039;22;20140;-72
2023/07/01 09:28:36;;;;;;;0.50;0.50;;;19.10;99.90;;;;;;6283899;22;20010;-74
2023/07/01 09:31:06;;;;;;;0.30;0.30;;;19.30;99.90;;;;;;6318198;22;20318;-72
2023/07/01 09:33:34;;;;;;;0.98;0.98;;;19.30;99.90;;;;;;6282737;22;20030;-73
2023/07/01 09:36:02;;;;;;;1.25;0.93;;;19.10;99.90;;;;;;6281705;22;20048;-72
2023/07/01 09:38:32;;;;;;;1.75;0.60;;;18.90;99.90;;;;;;6347753;22;19995;-71
2023/07/01 09:41:17;;;;;;;0.60;0.60;;;18.90;99.90;;;;;;6294171;22;20006;-74
2023/07/01 09:43:43;;;;;;;0.40;0.40;;;18.90;99.90;;;;;;6346951;22;20013;-72
2023/07/01 09:46:09;;;;;;;2.40;0.98;;;18.80;99.90;;;;;;6345796;22;19995;-72
2023/07/01 09:48:36;;;;;;;0.50;0.50;;;19.00;99.90;;;;;;6317410;22;20003;-81
2023/07/01 09:51:06;;;;;;;0.77;0.77;;;19.00;99.90;;;;;;6281728;22;20002;-71
2023/07/01 09:53:35;;;;;;;0.95;0.95;;;19.10;99.90;;;;;;6290188;22;20007;-74
2023/07/01 09:56:03;;;;;;;0.90;0.82;;;19.10;99.90;;;;;;6256775;22;20064;-71
2023/07/01 09:58:33;;;;;;;5.47;0.85;;;19.10;99.90;;;;;;6319259;22;20094;-72
2023/07/01 10:01:00;;;;;;;1.13;0.73;;;19.20;99.90;;;;;;6308813;22;20044;-71
2023/07/01 10:03:27;;;;;;;0.60;0.60;;;19.10;99.90;;;;;;6282115;22;20014;-71
2023/07/01 10:05:53;;;;;;;1.45;0.88;;;19.10;99.90;;;;;;6282597;22;20018;-71
2023/07/01 10:08:20;;;;;;;1.00;0.80;;;19.30;99.90;;;;;;6283629;22;20001;-73
2023/07/01 10:11:00;;;;;;;0.73;0.60;;;19.40;99.90;;;;;;6347513;22;19999;-74
2023/07/01 10:13:28;;;;;;;0.60;0.60;;;19.70;99.90;;;;;;6284613;22;20014;-71
2023/07/01 10:15:55;;;;;;;0.73;0.73;;;19.60;99.90;;;;;;6310558;22;20005;-71
2023/07/01 10:18:23;;;;;;;0.98;0.80;;;19.60;99.90;;;;;;6284176;22;20022;-71
2023/07/01 10:20:50;;;;;;;0.73;0.73;;;19.80;99.90;;;;;;6348426;22;19998;-72
2023/07/01 10:23:17;;;;;;;0.70;0.70;;;19.80;99.90;;;;;;6283141;22;20005;-71
2023/07/01 10:25:43;;;;;;;0.63;0.63;;;19.90;99.90;;;;;;6284180;22;20002;-71
2023/07/01 10:28:11;;;;;;;0.88;0.55;;;20.00;99.90;;;;;;6309922;22;20009;-72
2023/07/01 10:30:42;;;;;;;0.80;0.80;;;20.10;99.90;;;;;;6310195;22;19995;-71
2023/07/01 10:33:27;;;;;;;0.68;0.68;;;20.10;99.90;;;;;;6280114;22;20019;-74
2023/07/01 10:36:10;;;;;;;0.40;0.40;;;20.10;99.90;;;;;;6307709;22;19998;-72
2023/07/01 10:38:39;;;;;;;0.60;0.60;;;20.00;99.90;;;;;;6279552;22;20003;-72
2023/07/01 10:41:06;;;;;;;0.35;0.35;;;19.90;99.90;;;;;;6309458;22;20089;-70
2023/07/01 10:43:34;;;;;;;0.88;0.88;;;19.90;99.90;;;;;;6345793;22;20442;-70
2023/07/01 10:46:23;;;;;;;0.63;0.60;;;19.90;99.90;;;;;;6259053;22;20003;-71
2023/07/01 10:49:05;;;;;;;0.73;0.73;;;20.10;99.90;;;;;;6281632;22;20002;-77
2023/07/01 10:51:44;;;;;;;1.10;1.00;;;20.40;99.90;;;;;;6310389;22;20010;-70
2023/07/01 10:54:09;;;;;;;1.00;1.00;;;20.50;99.90;;;;;;6320270;22;20135;-70
2023/07/01 10:56:38;;;;;;;1.13;1.13;;;20.40;99.90;;;;;;6318932;22;20491;-70
2023/07/01 10:59:21;;;;;;;1.38;1.30;;;20.40;99.90;;;;;;6282458;22;20022;-72
2023/07/01 11:01:48;;;;;;;1.55;1.45;;;20.50;99.90;;;;;;6317619;22;19998;-85
2023/07/01 11:04:14;;;;;;;0.90;0.90;;;20.40;99.90;;;;;;6283950;22;20127;-71
2023/07/01 11:06:48;;;;;;;1.83;1.70;;;20.40;99.90;;;;;;6346095;22;20003;-72
2023/07/01 11:09:15;;;;;;;2.90;2.03;;;20.40;99.90;;;;;;6284123;22;20007;-73
2023/07/01 11:11:41;;;;;;;3.95;1.30;;;20.20;99.90;;;;;;6283836;22;20002;-71
2023/07/01 11:14:09;;;;;;;3.88;1.42;;;20.40;99.90;;;;;;6283353;22;19995;-71
2023/07/01 11:16:37;;;;;;;2.17;1.80;;;20.60;99.90;;;;;;6346574;22;20310;-71
2023/07/01 11:19:06;;;;;;;2.40;2.20;;;20.80;99.90;;;;;;6347317;22;20015;-71
2023/07/01 11:21:32;;;;;;;2.50;2.22;;;20.80;99.90;;;;;;6280069;22;20429;-74
2023/07/01 11:24:08;;;;;;;4.13;2.67;;;21.00;99.90;;;;;;6317226;22;20015;-73
2023/07/01 11:26:38;;;;;;;2.45;1.98;;;21.60;99.90;;;;;;6304205;22;20093;-73
2023/07/01 11:29:15;;;;;;;2.00;1.90;;;22.30;99.90;;;;;;6276576;22;20418;-72
2023/07/01 11:31:41;;;;;;;2.10;2.00;;;23.20;99.90;;;;;;6342571;22;20021;-72
2023/07/01 11:34:10;;;;;;;2.25;2.13;;;23.20;99.90;;;;;;6343719;22;19991;-75
2023/07/01 11:36:40;;;;;;;2.90;1.88;;;23.90;99.90;;;;;;6303599;22;19999;-71
2023/07/01 11:39:10;;;;;;;;;;;24.40;99.90;;;;;;6281283;22;20497;-74
2023/07/01 11:41:37;;;;;;;1.58;1.42;;;24.50;99.90;;;;;;6332814;22;19902;-78
2023/07/01 11:44:08;;;;;;;1.60;1.48;;;24.30;99.90;;;;;;6334451;22;20045;-71
2023/07/01 11:46:37;;;;;;;4.43;2.65;;;24.10;99.90;;;;;;6307655;22;20175;-71
2023/07/01 11:49:21;;;;;;;1.90;1.80;;;23.60;99.90;;;;;;6318837;22;20009;-73
2023/07/01 11:51:54;;;;;;;1.52;1.40;;;23.70;99.90;;;;;;6282542;22;20006;-70
2023/07/01 11:54:22;;;;;;;1.63;1.52;;;24.30;99.90;;;;;;6343186;22;20024;-76
2023/07/01 11:56:52;;;;;;;1.40;1.40;;;25.10;99.90;;;;;;6346175;22;19995;-73
2023/07/01 11:59:29;;;;;;;2.08;1.63;;;25.50;99.90;;;;;;6283891;22;20009;-71
2023/07/01 12:01:55;;;;;;;1.73;1.65;;;26.40;99.90;;;;;;6316537;22;20007;-71
2023/07/01 12:04:23;;;;;;;1.33;1.25;;;26.80;99.90;;;;;;6347263;22;20049;-71
2023/07/01 12:06:49;;;;;;;1.52;1.42;;;26.80;99.90;;;;;;6283430;22;20326;-71
2023/07/01 12:09:28;;;;;;;1.73;1.58;;;27.00;99.90;;;;;;6283333;22;20066;-72
2023/07/01 12:11:54;;;;;;;1.60;1.50;;;26.80;99.90;;;;;;6319543;22;20078;-71
2023/07/01 12:14:22;;;;;;;3.53;1.80;;;26.30;99.90;;;;;;6281998;22;20322;-71
2023/07/01 12:16:50;;;;;;;1.27;1.17;;;26.10;99.90;;;;;;6343616;22;20016;-72
2023/07/01 12:19:21;;;;;;;1.55;1.45;;;25.70;99.90;;;;;;6303836;22;20429;-71
2023/07/01 12:21:47;;;;;;;1.58;1.48;;;25.10;99.90;;;;;;6278932;22;20010;-74
2023/07/01 12:24:28;;;;;;;4.45;2.95;;;24.40;99.90;;;;;;6317476;22;20029;-76
2023/07/01 12:26:57;;;;;;;3.95;2.70;;;23.80;99.90;;;;;;6281657;22;20022;-74
2023/07/01 12:29:23;;;;;;;1.77;1.67;;;23.10;99.90;;;;;;6345025;22;20013;-70
2023/07/01 12:31:49;;;;;;;1.88;1.77;;;23.50;99.90;;;;;;6344094;22;20019;-82
2023/07/01 12:34:16;;;;;;;1.60;1.50;;;23.50;99.90;;;;;;6347186;22;20062;-70
2023/07/01 12:36:43;;;;;;;1.50;1.40;;;23.60;99.90;;;;;;6309162;22;20432;-71
2023/07/01 12:39:10;;;;;;;4.15;1.20;;;24.00;99.90;;;;;;6347058;22;20330;-71
2023/07/01 12:41:37;;;;;;;3.72;1.73;;;24.90;99.90;;;;;;6309037;22;20044;-71
2023/07/01 12:44:04;;;;;;;1.15;1.08;;;24.90;99.90;;;;;;6346392;22;20476;-71
2023/07/01 12:46:31;;;;;;;1.33;1.02;;;24.70;99.90;;;;;;6347690;22;20006;-72
2023/07/01 12:48:57;;;;;;;0.90;0.90;;;25.00;99.90;;;;;;6320042;22;20023;-70
2023/07/01 12:51:23;;;;;;;1.23;1.10;;;25.20;99.90;;;;;;6282693;22;20081;-74